PWSweather.com
Personal Weather Stations
Station Observations
OBERT
Bodensee Hinterland, OberteuringenDE

Bodensee HinterlandOberteuringenDE

Lat: 47.714675, Lon: 9.44447

Elevation: 1427

Station Type: Wunder Weather Station

High Low Average
Temperature 44.2°F6.8°C 27.3°F-2.6°C 34.5°F1.4°C
Dew Point 41.4°F5.2°C -0.1°F-17.8°C 30.4°F-0.9°C
Winds 5.7 mph 9.2 kmh Calm Calm 1.0 mph S1.6 kmh S
Wind Gusts 9.6 mph15.4 kmh -- 3.0 mph4.8 kmh
Humidity 100% -5% 86%
Pressure 29.97 in1014.9 mb 29.75 in1007.5 mb -
Precipitation 0.00 in0.0 mm - -
Hour Temp Dew Point Humidity Winds Wind Gusts Pressure Precip Precip Rate Daily Precip Total
12:23 AM 31.2°F-0.4°C 31.2°F-0.4°C 100% Calm Calm -- 29.76 in1007.8 mb 0.00 in0.0 mm 0.00 in0.0 mm 0.00 in0.0 mm
12:53 AM 31.1°F-0.5°C 31.1°F-0.5°C 100% Calm Calm -- 29.76 in1007.8 mb 0.00 in0.0 mm 0.00 in0.0 mm 0.00 in0.0 mm
01:23 AM 30.9°F-0.6°C 30.9°F-0.6°C 100% Calm Calm -- 29.76 in1007.8 mb 0.00 in0.0 mm 0.00 in0.0 mm 0.00 in0.0 mm
01:53 AM 30.5°F-0.8°C 30.5°F-0.8°C 100% Calm Calm -- 29.76 in1007.8 mb 0.00 in0.0 mm 0.00 in0.0 mm 0.00 in0.0 mm
02:23 AM 28.7°F-1.8°C 28.7°F-1.8°C 100% Calm Calm -- 29.75 in1007.5 mb 0.00 in0.0 mm 0.00 in0.0 mm 0.00 in0.0 mm
02:53 AM 28.0°F-2.2°C 28.0°F-2.2°C 100% Calm Calm -- 29.75 in1007.5 mb 0.00 in0.0 mm 0.00 in0.0 mm 0.00 in0.0 mm
03:23 AM 27.3°F-2.6°C 27.3°F-2.6°C 100% Calm Calm -- 29.75 in1007.5 mb 0.00 in0.0 mm 0.00 in0.0 mm 0.00 in0.0 mm
03:53 AM 29.4°F-1.4°C 29.4°F-1.4°C 100% 1.2 mph SSW1.9 kmh SSW 4.3 mph6.9 kmh 29.75 in1007.5 mb 0.00 in0.0 mm 0.00 in0.0 mm 0.00 in0.0 mm
04:23 AM 30.2°F-1.0°C 30.2°F-1.0°C 100% 2.2 mph WSW3.5 kmh WSW 4.0 mph6.4 kmh 29.75 in1007.5 mb 0.00 in0.0 mm 0.00 in0.0 mm 0.00 in0.0 mm
04:35 AM 30.5°F-0.8°C -0.1°F-17.8°C -5% 3.2 mph SSW5.1 kmh SSW 5.0 mph8.0 kmh 29.75 in1007.5 mb 0.00 in0.0 mm 0.00 in0.0 mm 0.00 in0.0 mm
05:05 AM 31.6°F-0.2°C -0.1°F-17.8°C -5% 0.8 mph SW1.3 kmh SW 4.0 mph6.4 kmh 29.75 in1007.5 mb 0.00 in0.0 mm 0.00 in0.0 mm 0.00 in0.0 mm
05:35 AM 31.4°F-0.3°C -0.1°F-17.8°C -5% 0.2 mph WSW0.3 kmh WSW 2.1 mph3.4 kmh 29.76 in1007.8 mb 0.00 in0.0 mm 0.00 in0.0 mm 0.00 in0.0 mm
06:05 AM 30.2°F-1.0°C -0.1°F-17.8°C -5% 0.6 mph WNW1.0 kmh WNW 1.8 mph2.9 kmh 29.76 in1007.8 mb 0.00 in0.0 mm 0.00 in0.0 mm 0.00 in0.0 mm
06:35 AM 29.4°F-1.4°C -0.1°F-17.8°C -5% 1.2 mph WNW1.9 kmh WNW 3.1 mph5.0 kmh 29.76 in1007.8 mb 0.00 in0.0 mm 0.00 in0.0 mm 0.00 in0.0 mm
07:05 AM 28.7°F-1.8°C 28.7°F-1.8°C 100% 0.4 mph S0.6 kmh S 3.4 mph5.5 kmh 29.76 in1007.8 mb 0.00 in0.0 mm 0.00 in0.0 mm 0.00 in0.0 mm
07:35 AM 28.5°F-1.9°C 28.5°F-1.9°C 100% Calm Calm 1.5 mph2.4 kmh 29.78 in1008.5 mb 0.00 in0.0 mm 0.00 in0.0 mm 0.00 in0.0 mm
08:05 AM 30.0°F-1.1°C -0.1°F-17.8°C -5% 0.7 mph SW1.1 kmh SW 3.1 mph5.0 kmh 29.79 in1008.8 mb 0.00 in0.0 mm 0.00 in0.0 mm 0.00 in0.0 mm
08:35 AM 31.6°F-0.2°C 31.6°F-0.2°C 100% 1.4 mph SW2.3 kmh SW 4.0 mph6.4 kmh 29.80 in1009.1 mb 0.00 in0.0 mm 0.00 in0.0 mm 0.00 in0.0 mm
09:05 AM 32.9°F0.5°C 32.9°F0.5°C 100% 0.8 mph WSW1.3 kmh WSW 4.3 mph6.9 kmh 29.82 in1009.8 mb 0.00 in0.0 mm 0.00 in0.0 mm 0.00 in0.0 mm
09:35 AM 33.4°F0.8°C 33.4°F0.8°C 100% 1.9 mph SW3.1 kmh SW 6.2 mph10.0 kmh 29.83 in1010.2 mb 0.00 in0.0 mm 0.00 in0.0 mm 0.00 in0.0 mm
10:05 AM 34.1°F1.2°C 34.1°F1.2°C 100% 0.5 mph WSW0.8 kmh WSW 4.6 mph7.4 kmh 29.84 in1010.5 mb 0.00 in0.0 mm 0.00 in0.0 mm 0.00 in0.0 mm
10:35 AM 35.7°F2.1°C 35.7°F2.1°C 100% 0.3 mph NW0.5 kmh NW 4.3 mph6.9 kmh 29.85 in1010.8 mb 0.00 in0.0 mm 0.00 in0.0 mm 0.00 in0.0 mm
11:05 AM 38.6°F3.7°C 38.6°F3.7°C 100% Calm Calm 2.8 mph4.5 kmh 29.85 in1010.8 mb 0.00 in0.0 mm 0.00 in0.0 mm 0.00 in0.0 mm
11:35 AM 40.4°F4.7°C 40.4°F4.7°C 100% Calm Calm 3.7 mph6.0 kmh 29.85 in1010.8 mb 0.00 in0.0 mm 0.00 in0.0 mm 0.00 in0.0 mm
12:05 PM 39.3°F4.1°C 39.1°F3.9°C 99% 2.3 mph NNE3.7 kmh NNE 5.3 mph8.5 kmh 29.86 in1011.2 mb 0.00 in0.0 mm 0.00 in0.0 mm 0.00 in0.0 mm
12:35 PM 40.4°F4.7°C 39.7°F4.3°C 97% 4.0 mph N6.4 kmh N 5.9 mph9.5 kmh 29.86 in1011.2 mb 0.00 in0.0 mm 0.00 in0.0 mm 0.00 in0.0 mm
01:05 PM 41.3°F5.2°C 40.2°F4.6°C 95% 2.7 mph 4.3 kmh 4.3 mph6.9 kmh 29.86 in1011.2 mb 0.00 in0.0 mm 0.00 in0.0 mm 0.00 in0.0 mm
01:35 PM 42.9°F6.1°C 41.4°F5.2°C 94% Calm Calm 2.8 mph4.5 kmh 29.86 in1011.2 mb 0.00 in0.0 mm 0.00 in0.0 mm 0.00 in0.0 mm
02:05 PM 41.5°F5.3°C 39.4°F4.1°C 92% 1.3 mph 2.1 kmh 3.1 mph5.0 kmh 29.87 in1011.5 mb 0.00 in0.0 mm 0.00 in0.0 mm 0.00 in0.0 mm
02:35 PM 44.2°F6.8°C 41.0°F5.0°C 88% Calm Calm -- 29.87 in1011.5 mb 0.00 in0.0 mm 0.00 in0.0 mm 0.00 in0.0 mm
03:05 PM 42.0°F5.6°C 39.8°F4.3°C 91% Calm Calm -- 29.88 in1011.9 mb 0.00 in0.0 mm 0.00 in0.0 mm 0.00 in0.0 mm
03:35 PM 40.8°F4.9°C 38.9°F3.8°C 93% Calm Calm -- 29.89 in1012.2 mb 0.00 in0.0 mm 0.00 in0.0 mm 0.00 in0.0 mm
04:05 PM 39.9°F4.4°C 39.5°F4.2°C 98% 0.2 mph SSE0.3 kmh SSE 2.5 mph4.0 kmh 29.90 in1012.5 mb 0.00 in0.0 mm 0.00 in0.0 mm 0.00 in0.0 mm
04:35 PM 37.7°F3.2°C 37.7°F3.2°C 100% 3.3 mph SSW5.3 kmh SSW 6.2 mph10.0 kmh 29.91 in1012.9 mb 0.00 in0.0 mm 0.00 in0.0 mm 0.00 in0.0 mm
05:05 PM 35.6°F2.0°C 35.6°F2.0°C 100% 2.6 mph SSW4.2 kmh SSW 5.9 mph9.5 kmh 29.92 in1013.2 mb 0.00 in0.0 mm 0.00 in0.0 mm 0.00 in0.0 mm
05:35 PM 34.1°F1.2°C 34.1°F1.2°C 100% 1.4 mph SW2.3 kmh SW 4.0 mph6.4 kmh 29.93 in1013.5 mb 0.00 in0.0 mm 0.00 in0.0 mm 0.00 in0.0 mm
06:05 PM 35.2°F1.8°C 35.2°F1.8°C 100% 4.8 mph SSW7.7 kmh SSW 7.1 mph11.4 kmh 29.94 in1013.9 mb 0.00 in0.0 mm 0.00 in0.0 mm 0.00 in0.0 mm
06:35 PM 35.2°F1.8°C 35.2°F1.8°C 100% 5.7 mph S9.2 kmh S 9.6 mph15.4 kmh 29.95 in1014.2 mb 0.00 in0.0 mm 0.00 in0.0 mm 0.00 in0.0 mm
07:05 PM 34.8°F1.6°C 34.8°F1.6°C 100% 3.5 mph SE5.6 kmh SE 8.4 mph13.5 kmh 29.96 in1014.6 mb 0.00 in0.0 mm 0.00 in0.0 mm 0.00 in0.0 mm
07:35 PM 34.8°F1.6°C 34.8°F1.6°C 100% 3.5 mph S5.6 kmh S 5.0 mph8.0 kmh 29.96 in1014.6 mb 0.00 in0.0 mm 0.00 in0.0 mm 0.00 in0.0 mm
08:05 PM 34.7°F1.5°C 34.7°F1.5°C 100% 2.6 mph SW4.2 kmh SW 5.6 mph9.0 kmh 29.96 in1014.6 mb 0.00 in0.0 mm 0.00 in0.0 mm 0.00 in0.0 mm
08:35 PM 34.5°F1.4°C 34.5°F1.4°C 100% 1.9 mph ESE3.1 kmh ESE 4.6 mph7.4 kmh 29.97 in1014.9 mb 0.00 in0.0 mm 0.00 in0.0 mm 0.00 in0.0 mm
09:05 PM 34.7°F1.5°C 34.7°F1.5°C 100% Calm Calm 2.8 mph4.5 kmh 29.96 in1014.6 mb 0.00 in0.0 mm 0.00 in0.0 mm 0.00 in0.0 mm
09:35 PM 35.0°F1.7°C 35.0°F1.7°C 100% 1.2 mph SSE1.9 kmh SSE 3.4 mph5.5 kmh 29.97 in1014.9 mb 0.00 in0.0 mm 0.00 in0.0 mm 0.00 in0.0 mm
10:05 PM 35.0°F1.7°C 35.0°F1.7°C 100% 3.2 mph SE5.1 kmh SE 5.6 mph9.0 kmh 29.96 in1014.6 mb 0.00 in0.0 mm 0.00 in0.0 mm 0.00 in0.0 mm
10:35 PM 34.8°F1.6°C 34.8°F1.6°C 100% 0.4 mph E0.6 kmh E 3.1 mph5.0 kmh 29.96 in1014.6 mb 0.00 in0.0 mm 0.00 in0.0 mm 0.00 in0.0 mm
10:47 PM 34.8°F1.6°C 34.8°F1.6°C 100% 1.3 mph ESE2.1 kmh ESE 2.5 mph4.0 kmh 29.95 in1014.2 mb 0.00 in0.0 mm 0.00 in0.0 mm 0.00 in0.0 mm
11:17 PM 35.2°F1.8°C 35.2°F1.8°C 100% 2.1 mph E3.4 kmh E 3.4 mph5.5 kmh 29.95 in1014.2 mb 0.00 in0.0 mm 0.00 in0.0 mm 0.00 in0.0 mm
11:47 PM 35.4°F1.9°C 35.4°F1.9°C 100% 4.0 mph SE6.4 kmh SE 6.8 mph10.9 kmh 29.95 in1014.2 mb 0.00 in0.0 mm 0.00 in0.0 mm 0.00 in0.0 mm